Aérodrome :
LOGIN :

S'inscrire | Disclaimer

   EN    FR    IT 

 










Légende :    VFR   VFR Marginal   IFR   IFR Intensif   IFR Très Intensif
Visi : 
Plafond : 
>= 8 km
>= 3000ft
5 à 8 km
1000 à 3000 ft
1500m à 5 km
500 à 1000 ft
800 à 1500m
200 à 500 ft
< 800m
< 200 ft
Symboles :   Orages  Brouillard  Fortes neiges  Fortes précipitations  Vent > 20 kt
SIGMETs :   Divers  Orages  Givrage  Turbulence  Onde Orograph.  Cendres Volcan.







- Altitude de l'aérodrome : 427 ft
- Code IATA : CIA


LIRA - Roma Ciampino

DERNIER METAR :
  • 231620Z 28004KT CAVOK 20/12 Q1016

METARs EXPIRÉS :
  • 231550Z 20004KT 170V240 CAVOK 21/11 Q1016
  • 231520Z 20004KT CAVOK 22/10 Q1015
  • 231450Z VRB02KT CAVOK 22/10 Q1016
  • 231420Z 18004KT 140V210 CAVOK 22/10 Q1016
  • 231350Z 18004KT 140V220 CAVOK 23/09 Q1016

TAF TAF LIRA
Valide du 23 à 12h jusqu'au 24 à 12h UTC


231100Z 2312/2412 02012KT CAVOK
BECMG 2316/2318 VRB05KT
BECMG 2410/2412 25010KT
Pas de NOTAMs connus pour ce terrain.
3 SIGMETs publiés pour la FIR Roma (LIRR) :
 
Turbulence forte
LIRR SIGMET 9 VALID 231600/231910 LIIB
LIRR ROMA FIR SEV TURB FCST WI N3756 E01030 - N3733 E01128 - N3628 E01130 - N3625 E01231 - N3628 E01337 - N3733 E01602 - N3852 E01730 - N3853 E01649 - N3910 E01610 - N4001 E01546 - N4039 E01432 - N3756 E01030 FL270/400 STNR WKN=
Annulation du SIGMET 6 
LIRR SIGMET 8 VALID 231606/231915 LIIB- LIRR ROMA FIR EXERCISE VOLCITA 2018 EXERCISE CNL SIGMET 6 231315/231915 EXERCISE EXERCISE EXERCISE=
SIGMET 6  ANNULÉ :
Cendres volcaniques
LIRR SIGMET 6 VALID 231315/231915 LIIB- LIRR ROMA FIR EXERCISE VOLCITA 2018 EXERCISE VA ERUPTION MT CAMPI FLEGREI PSN N4050 E01408 VA CLD OBS AT 1300Z WI N3630 E01130 - N3730 E01130 - N3758 E01024 - N4140 E01119 - N4143 E01408 - N4127 E01422 - N4112 E01507 - N4054 E01517 - N3630 E01437 - N3630 E01130 SFC/FL100 FCST AT 1900Z WI N3630 E01130 - N3730 E01130 - N3816 E00942 - N4119 E01034 - N4147 E01404 - N4127 E01422 - N4112 E01507 - N4026 E01533 - N3630 E01340 - N3630 E01130 AND WI N3630 E01130 - N3730 E01130 - N3758 E01024 - N4140 E01119 - N4143 E01408 - N4127 E01422 - N4112 E01507 - N4054 E01517 - N3630 E01437 - N3630 E01130 FL100/460 FCST AT 1900Z WI N3630 E01130 - N3730 E01130 - N3839 E00847 - N3925 E00819 - N4156 E01356 - N4127 E01422 - N4112 E01507 - N3913 E01615 - N3858 E01631 - N3858 E01637 - N3630 E01737 - N3630 E01130 EXERCISE EXERCISE EXERCISE=



MET'MAP, la Météo Aéronautique d'un coup d'oeil ! - Copyright ORBIFLY Décembre 2007 - Disclaimer

ORBIFLY MET'MAP TEAM :

Programmation & Développement : Alexandra Zaïnal
Conception & Développement : Baudouin d'Aumeries
Co-Programmation & Développement : Marc-Olivier Méhu
Soutien technique & logistique : Manuel Goepfert

Contact : metmap@orbifly.com




SOURCES & CREDITS :

   NOAA